sensor_id;sensor_type;location;lat;lon;timestamp;temperature;humidity
29093;DHT22;16167;48.768;14.984;2022-11-20T00:01:05;-1.50;82.50
29093;DHT22;16167;48.768;14.984;2022-11-20T00:03:33;-1.50;84.50
29093;DHT22;16167;48.768;14.984;2022-11-20T00:06:02;-1.50;81.70
29093;DHT22;16167;48.768;14.984;2022-11-20T00:08:30;-1.50;83.40
29093;DHT22;16167;48.768;14.984;2022-11-20T00:11:03;-1.50;83.60
29093;DHT22;16167;48.768;14.984;2022-11-20T00:13:31;-1.50;80.70
29093;DHT22;16167;48.768;14.984;2022-11-20T00:16:01;-1.50;81.20
29093;DHT22;16167;48.768;14.984;2022-11-20T00:18:30;-1.50;83.60
29093;DHT22;16167;48.768;14.984;2022-11-20T00:21:01;-1.50;84.40
29093;DHT22;16167;48.768;14.984;2022-11-20T00:23:29;-1.50;88.00
29093;DHT22;16167;48.768;14.984;2022-11-20T00:26:02;-1.50;85.60
29093;DHT22;16167;48.768;14.984;2022-11-20T00:28:31;-1.50;83.60
29093;DHT22;16167;48.768;14.984;2022-11-20T00:31:03;-1.50;84.20
29093;DHT22;16167;48.768;14.984;2022-11-20T00:33:32;-1.50;85.30
29093;DHT22;16167;48.768;14.984;2022-11-20T00:36:01;-1.40;88.60
29093;DHT22;16167;48.768;14.984;2022-11-20T00:38:30;-1.50;81.70
29093;DHT22;16167;48.768;14.984;2022-11-20T00:40:59;-1.40;83.30
29093;DHT22;16167;48.768;14.984;2022-11-20T00:43:29;-1.40;80.50
29093;DHT22;16167;48.768;14.984;2022-11-20T00:45:57;-1.40;83.30
29093;DHT22;16167;48.768;14.984;2022-11-20T00:48:26;-1.40;81.80
29093;DHT22;16167;48.768;14.984;2022-11-20T00:50:55;-1.40;84.10
29093;DHT22;16167;48.768;14.984;2022-11-20T00:53:23;-1.40;81.50
29093;DHT22;16167;48.768;14.984;2022-11-20T00:55:54;-1.50;82.30
29093;DHT22;16167;48.768;14.984;2022-11-20T00:58:23;-1.40;85.00
29093;DHT22;16167;48.768;14.984;2022-11-20T01:00:53;-1.40;87.90
29093;DHT22;16167;48.768;14.984;2022-11-20T01:03:27;-1.40;90.30
29093;DHT22;16167;48.768;14.984;2022-11-20T01:05:59;-1.40;90.20
29093;DHT22;16167;48.768;14.984;2022-11-20T01:08:29;-1.40;88.80
29093;DHT22;16167;48.768;14.984;2022-11-20T01:11:01;-1.40;85.30
29093;DHT22;16167;48.768;14.984;2022-11-20T01:13:29;-1.40;84.20
29093;DHT22;16167;48.768;14.984;2022-11-20T01:16:10;-1.40;87.20
29093;DHT22;16167;48.768;14.984;2022-11-20T01:18:40;-1.30;84.80
29093;DHT22;16167;48.768;14.984;2022-11-20T01:21:12;-1.30;86.10
29093;DHT22;16167;48.768;14.984;2022-11-20T01:23:41;-1.30;88.70
29093;DHT22;16167;48.768;14.984;2022-11-20T01:26:11;-1.40;87.60
29093;DHT22;16167;48.768;14.984;2022-11-20T01:28:40;-1.30;87.20
29093;DHT22;16167;48.768;14.984;2022-11-20T01:31:15;-1.30;87.30
29093;DHT22;16167;48.768;14.984;2022-11-20T01:33:44;-1.30;85.90
29093;DHT22;16167;48.768;14.984;2022-11-20T01:36:14;-1.40;87.90
29093;DHT22;16167;48.768;14.984;2022-11-20T01:38:42;-1.40;90.80
29093;DHT22;16167;48.768;14.984;2022-11-20T01:41:12;-1.40;92.10
29093;DHT22;16167;48.768;14.984;2022-11-20T01:44:02;-1.30;90.80
29093;DHT22;16167;48.768;14.984;2022-11-20T01:46:31;-1.30;89.50
29093;DHT22;16167;48.768;14.984;2022-11-20T01:49:03;-1.30;88.90
29093;DHT22;16167;48.768;14.984;2022-11-20T01:51:34;-1.20;91.20
29093;DHT22;16167;48.768;14.984;2022-11-20T01:54:06;-1.20;90.80
29093;DHT22;16167;48.768;14.984;2022-11-20T01:56:38;-1.20;91.80
29093;DHT22;16167;48.768;14.984;2022-11-20T01:59:08;-1.20;92.00
29093;DHT22;16167;48.768;14.984;2022-11-20T02:01:39;-1.20;92.30
29093;DHT22;16167;48.768;14.984;2022-11-20T02:04:08;-1.20;91.80
29093;DHT22;16167;48.768;14.984;2022-11-20T02:06:42;-1.10;90.40
29093;DHT22;16167;48.768;14.984;2022-11-20T02:09:10;-1.10;89.30
29093;DHT22;16167;48.768;14.984;2022-11-20T02:11:39;-1.20;87.50
29093;DHT22;16167;48.768;14.984;2022-11-20T02:14:08;-1.10;87.20
29093;DHT22;16167;48.768;14.984;2022-11-20T02:16:37;-1.10;85.60
29093;DHT22;16167;48.768;14.984;2022-11-20T02:19:17;-1.10;88.70
29093;DHT22;16167;48.768;14.984;2022-11-20T02:21:50;-1.10;89.60
29093;DHT22;16167;48.768;14.984;2022-11-20T02:24:23;-1.10;88.50
29093;DHT22;16167;48.768;14.984;2022-11-20T02:26:53;-1.10;89.50
29093;DHT22;16167;48.768;14.984;2022-11-20T02:29:25;-1.10;87.30
29093;DHT22;16167;48.768;14.984;2022-11-20T02:31:55;-1.10;89.60
29093;DHT22;16167;48.768;14.984;2022-11-20T02:34:24;-1.10;89.60
29093;DHT22;16167;48.768;14.984;2022-11-20T02:36:53;-1.10;88.20
29093;DHT22;16167;48.768;14.984;2022-11-20T02:39:23;-1.10;91.60
29093;DHT22;16167;48.768;14.984;2022-11-20T02:41:53;-1.10;90.40
29093;DHT22;16167;48.768;14.984;2022-11-20T02:44:21;-1.10;90.20
29093;DHT22;16167;48.768;14.984;2022-11-20T02:46:49;-1.10;89.20
29093;DHT22;16167;48.768;14.984;2022-11-20T02:49:17;-1.10;86.00
29093;DHT22;16167;48.768;14.984;2022-11-20T02:51:46;-1.10;85.60
29093;DHT22;16167;48.768;14.984;2022-11-20T02:54:14;-1.10;86.90
29093;DHT22;16167;48.768;14.984;2022-11-20T02:56:43;-1.10;86.10
29093;DHT22;16167;48.768;14.984;2022-11-20T02:59:11;-1.20;85.60
29093;DHT22;16167;48.768;14.984;2022-11-20T03:01:39;-1.20;83.80
29093;DHT22;16167;48.768;14.984;2022-11-20T03:04:07;-1.20;84.80
29093;DHT22;16167;48.768;14.984;2022-11-20T03:06:36;-1.20;83.90
29093;DHT22;16167;48.768;14.984;2022-11-20T03:09:04;-1.20;84.20
29093;DHT22;16167;48.768;14.984;2022-11-20T03:11:32;-1.20;86.00
29093;DHT22;16167;48.768;14.984;2022-11-20T03:14:03;-1.20;86.30
29093;DHT22;16167;48.768;14.984;2022-11-20T03:16:31;-1.20;84.70
29093;DHT22;16167;48.768;14.984;2022-11-20T03:19:00;-1.20;83.80
29093;DHT22;16167;48.768;14.984;2022-11-20T03:21:28;-1.20;85.60
29093;DHT22;16167;48.768;14.984;2022-11-20T03:23:56;-1.20;86.90
29093;DHT22;16167;48.768;14.984;2022-11-20T03:26:25;-1.20;87.40
29093;DHT22;16167;48.768;14.984;2022-11-20T03:28:55;-1.20;87.20
29093;DHT22;16167;48.768;14.984;2022-11-20T03:31:27;-1.20;87.00
29093;DHT22;16167;48.768;14.984;2022-11-20T03:33:56;-1.10;87.50
29093;DHT22;16167;48.768;14.984;2022-11-20T03:36:25;-1.10;85.00
29093;DHT22;16167;48.768;14.984;2022-11-20T03:38:54;-1.10;84.60
29093;DHT22;16167;48.768;14.984;2022-11-20T03:41:24;-1.10;85.50
29093;DHT22;16167;48.768;14.984;2022-11-20T03:43:53;-1.20;83.80
29093;DHT22;16167;48.768;14.984;2022-11-20T03:46:22;-1.20;86.30
29093;DHT22;16167;48.768;14.984;2022-11-20T03:48:51;-1.20;87.70
29093;DHT22;16167;48.768;14.984;2022-11-20T03:51:21;-1.20;89.10
29093;DHT22;16167;48.768;14.984;2022-11-20T03:53:52;-1.20;89.80
29093;DHT22;16167;48.768;14.984;2022-11-20T03:56:24;-1.20;88.40
29093;DHT22;16167;48.768;14.984;2022-11-20T03:58:52;-1.20;90.10
29093;DHT22;16167;48.768;14.984;2022-11-20T04:01:21;-1.10;90.40
29093;DHT22;16167;48.768;14.984;2022-11-20T04:03:52;-1.10;90.60
29093;DHT22;16167;48.768;14.984;2022-11-20T04:06:23;-1.10;90.30
29093;DHT22;16167;48.768;14.984;2022-11-20T04:08:51;-1.10;91.10
29093;DHT22;16167;48.768;14.984;2022-11-20T04:11:22;-1.10;90.90
29093;DHT22;16167;48.768;14.984;2022-11-20T04:13:51;-1.10;90.60
29093;DHT22;16167;48.768;14.984;2022-11-20T04:16:19;-1.00;91.60
29093;DHT22;16167;48.768;14.984;2022-11-20T04:18:53;-1.00;91.40
29093;DHT22;16167;48.768;14.984;2022-11-20T04:21:22;-1.00;92.20
29093;DHT22;16167;48.768;14.984;2022-11-20T04:23:50;-1.00;91.40
29093;DHT22;16167;48.768;14.984;2022-11-20T04:26:20;-1.00;90.70
29093;DHT22;16167;48.768;14.984;2022-11-20T04:28:48;-1.00;89.50
29093;DHT22;16167;48.768;14.984;2022-11-20T04:31:18;-1.00;90.00
29093;DHT22;16167;48.768;14.984;2022-11-20T04:33:46;-1.00;91.30
29093;DHT22;16167;48.768;14.984;2022-11-20T04:36:18;-1.00;91.60
29093;DHT22;16167;48.768;14.984;2022-11-20T04:38:50;-1.00;91.90
29093;DHT22;16167;48.768;14.984;2022-11-20T04:41:24;-1.00;91.70
29093;DHT22;16167;48.768;14.984;2022-11-20T04:43:54;-1.00;90.80
29093;DHT22;16167;48.768;14.984;2022-11-20T04:46:27;-1.00;91.20
29093;DHT22;16167;48.768;14.984;2022-11-20T04:48:55;-1.00;91.30
29093;DHT22;16167;48.768;14.984;2022-11-20T04:51:25;-1.00;91.50
29093;DHT22;16167;48.768;14.984;2022-11-20T04:53:53;-0.90;92.10
29093;DHT22;16167;48.768;14.984;2022-11-20T04:56:21;-1.00;91.60
29093;DHT22;16167;48.768;14.984;2022-11-20T04:58:50;-1.00;91.20
29093;DHT22;16167;48.768;14.984;2022-11-20T05:01:19;-0.90;90.30
29093;DHT22;16167;48.768;14.984;2022-11-20T05:03:48;-0.90;90.30
29093;DHT22;16167;48.768;14.984;2022-11-20T05:06:17;-1.00;90.40
29093;DHT22;16167;48.768;14.984;2022-11-20T05:08:47;-0.90;90.60
29093;DHT22;16167;48.768;14.984;2022-11-20T05:11:16;-1.00;91.50
29093;DHT22;16167;48.768;14.984;2022-11-20T05:13:44;-1.00;91.30
29093;DHT22;16167;48.768;14.984;2022-11-20T05:16:15;-1.00;91.40
29093;DHT22;16167;48.768;14.984;2022-11-20T05:18:43;-1.00;92.60
29093;DHT22;16167;48.768;14.984;2022-11-20T05:21:11;-0.90;93.70
29093;DHT22;16167;48.768;14.984;2022-11-20T05:23:40;-1.00;93.40
29093;DHT22;16167;48.768;14.984;2022-11-20T05:26:13;-1.00;92.70
29093;DHT22;16167;48.768;14.984;2022-11-20T05:28:42;-1.00;92.10
29093;DHT22;16167;48.768;14.984;2022-11-20T05:31:12;-0.90;92.40
29093;DHT22;16167;48.768;14.984;2022-11-20T05:33:40;-0.90;92.60
29093;DHT22;16167;48.768;14.984;2022-11-20T05:36:10;-0.90;92.70
29093;DHT22;16167;48.768;14.984;2022-11-20T05:38:38;-0.90;91.90
29093;DHT22;16167;48.768;14.984;2022-11-20T05:41:07;-0.90;90.50
29093;DHT22;16167;48.768;14.984;2022-11-20T05:43:38;-0.90;91.30
29093;DHT22;16167;48.768;14.984;2022-11-20T05:46:07;-0.90;91.90
29093;DHT22;16167;48.768;14.984;2022-11-20T05:48:36;-0.90;91.70
29093;DHT22;16167;48.768;14.984;2022-11-20T05:51:06;-0.90;91.70
29093;DHT22;16167;48.768;14.984;2022-11-20T05:53:35;-0.90;90.90
29093;DHT22;16167;48.768;14.984;2022-11-20T05:56:05;-0.90;90.90
29093;DHT22;16167;48.768;14.984;2022-11-20T05:58:33;-0.90;92.10
29093;DHT22;16167;48.768;14.984;2022-11-20T06:01:08;-0.90;90.50
29093;DHT22;16167;48.768;14.984;2022-11-20T06:03:37;-0.90;90.80
29093;DHT22;16167;48.768;14.984;2022-11-20T06:06:06;-0.90;90.80
29093;DHT22;16167;48.768;14.984;2022-11-20T06:08:34;-0.90;90.80
29093;DHT22;16167;48.768;14.984;2022-11-20T06:11:07;-0.90;90.90
29093;DHT22;16167;48.768;14.984;2022-11-20T06:13:36;-0.90;90.80
29093;DHT22;16167;48.768;14.984;2022-11-20T06:16:10;-0.80;90.40
29093;DHT22;16167;48.768;14.984;2022-11-20T06:18:39;-0.80;90.20
29093;DHT22;16167;48.768;14.984;2022-11-20T06:21:08;-0.80;90.20
29093;DHT22;16167;48.768;14.984;2022-11-20T06:23:37;-0.80;89.60
29093;DHT22;16167;48.768;14.984;2022-11-20T06:26:06;-0.80;90.20
29093;DHT22;16167;48.768;14.984;2022-11-20T06:28:35;-0.80;91.80
29093;DHT22;16167;48.768;14.984;2022-11-20T06:31:03;-0.70;92.40
29093;DHT22;16167;48.768;14.984;2022-11-20T06:33:33;-0.80;92.40
29093;DHT22;16167;48.768;14.984;2022-11-20T06:36:01;-0.70;91.40
29093;DHT22;16167;48.768;14.984;2022-11-20T06:38:36;-0.80;90.60
29093;DHT22;16167;48.768;14.984;2022-11-20T06:41:05;-0.80;90.30
29093;DHT22;16167;48.768;14.984;2022-11-20T06:43:33;-0.80;88.70
29093;DHT22;16167;48.768;14.984;2022-11-20T06:46:01;-0.70;87.90
29093;DHT22;16167;48.768;14.984;2022-11-20T06:48:29;-0.70;87.90
29093;DHT22;16167;48.768;14.984;2022-11-20T06:50:59;-0.70;87.60
29093;DHT22;16167;48.768;14.984;2022-11-20T06:53:26;-0.70;88.50
29093;DHT22;16167;48.768;14.984;2022-11-20T06:55:56;-0.60;89.40
29093;DHT22;16167;48.768;14.984;2022-11-20T06:58:25;-0.60;90.60
29093;DHT22;16167;48.768;14.984;2022-11-20T07:00:54;-0.60;91.00
29093;DHT22;16167;48.768;14.984;2022-11-20T07:03:22;-0.50;87.80
29093;DHT22;16167;48.768;14.984;2022-11-20T07:05:50;-0.50;88.60
29093;DHT22;16167;48.768;14.984;2022-11-20T07:08:19;-0.40;86.80
29093;DHT22;16167;48.768;14.984;2022-11-20T07:10:47;-0.40;87.70
29093;DHT22;16167;48.768;14.984;2022-11-20T07:13:15;-0.40;86.90
29093;DHT22;16167;48.768;14.984;2022-11-20T07:15:43;-0.40;85.30
29093;DHT22;16167;48.768;14.984;2022-11-20T07:18:11;-0.30;86.70
29093;DHT22;16167;48.768;14.984;2022-11-20T07:20:39;-0.30;86.20
29093;DHT22;16167;48.768;14.984;2022-11-20T07:23:07;-0.20;85.20
29093;DHT22;16167;48.768;14.984;2022-11-20T07:25:36;-0.20;79.30
29093;DHT22;16167;48.768;14.984;2022-11-20T07:28:05;-0.10;77.30
29093;DHT22;16167;48.768;14.984;2022-11-20T07:30:33;-0.10;78.80
29093;DHT22;16167;48.768;14.984;2022-11-20T07:33:01;0.00;71.90
29093;DHT22;16167;48.768;14.984;2022-11-20T07:35:29;0.00;72.40
29093;DHT22;16167;48.768;14.984;2022-11-20T07:37:57;0.10;69.10
29093;DHT22;16167;48.768;14.984;2022-11-20T07:40:25;0.10;67.80
29093;DHT22;16167;48.768;14.984;2022-11-20T07:42:55;0.20;64.00
29093;DHT22;16167;48.768;14.984;2022-11-20T07:45:23;0.30;63.20
29093;DHT22;16167;48.768;14.984;2022-11-20T07:47:51;0.30;55.60
29093;DHT22;16167;48.768;14.984;2022-11-20T07:50:20;0.40;57.20
29093;DHT22;16167;48.768;14.984;2022-11-20T07:52:48;0.40;54.70
29093;DHT22;16167;48.768;14.984;2022-11-20T07:55:16;0.50;54.00
29093;DHT22;16167;48.768;14.984;2022-11-20T07:57:44;0.50;52.10
29093;DHT22;16167;48.768;14.984;2022-11-20T08:00:14;0.50;54.20
29093;DHT22;16167;48.768;14.984;2022-11-20T08:02:43;0.60;53.00
29093;DHT22;16167;48.768;14.984;2022-11-20T08:05:13;0.60;52.60
29093;DHT22;16167;48.768;14.984;2022-11-20T08:07:42;0.60;50.70
29093;DHT22;16167;48.768;14.984;2022-11-20T08:10:12;0.60;48.40
29093;DHT22;16167;48.768;14.984;2022-11-20T08:12:44;0.60;50.70
29093;DHT22;16167;48.768;14.984;2022-11-20T08:15:32;0.60;52.80
29093;DHT22;16167;48.768;14.984;2022-11-20T08:18:02;0.60;51.10
29093;DHT22;16167;48.768;14.984;2022-11-20T08:20:50;0.50;53.60
29093;DHT22;16167;48.768;14.984;2022-11-20T08:23:18;0.50;58.10
29093;DHT22;16167;48.768;14.984;2022-11-20T08:25:49;0.50;58.80
29093;DHT22;16167;48.768;14.984;2022-11-20T08:28:17;0.50;59.00
29093;DHT22;16167;48.768;14.984;2022-11-20T08:30:49;0.50;59.50
29093;DHT22;16167;48.768;14.984;2022-11-20T08:33:18;0.40;60.00
29093;DHT22;16167;48.768;14.984;2022-11-20T08:35:46;0.50;60.70
29093;DHT22;16167;48.768;14.984;2022-11-20T08:38:14;0.50;57.70
29093;DHT22;16167;48.768;14.984;2022-11-20T08:40:42;0.50;63.60
29093;DHT22;16167;48.768;14.984;2022-11-20T08:43:31;0.50;60.00
29093;DHT22;16167;48.768;14.984;2022-11-20T08:46:01;0.60;60.60
29093;DHT22;16167;48.768;14.984;2022-11-20T08:48:29;0.60;63.10
29093;DHT22;16167;48.768;14.984;2022-11-20T08:50:58;0.70;60.60
29093;DHT22;16167;48.768;14.984;2022-11-20T08:53:26;0.90;63.90
29093;DHT22;16167;48.768;14.984;2022-11-20T08:55:54;1.00;57.60
29093;DHT22;16167;48.768;14.984;2022-11-20T08:58:24;1.00;54.40
29093;DHT22;16167;48.768;14.984;2022-11-20T09:00:52;1.10;51.70
29093;DHT22;16167;48.768;14.984;2022-11-20T09:03:22;1.10;49.30
29093;DHT22;16167;48.768;14.984;2022-11-20T09:05:57;1.20;47.40
29093;DHT22;16167;48.768;14.984;2022-11-20T09:08:26;1.30;42.20
29093;DHT22;16167;48.768;14.984;2022-11-20T09:10:56;1.40;40.50
29093;DHT22;16167;48.768;14.984;2022-11-20T09:13:25;1.60;32.10
29093;DHT22;16167;48.768;14.984;2022-11-20T09:15:53;1.80;32.10
29093;DHT22;16167;48.768;14.984;2022-11-20T09:18:24;1.90;23.40
29093;DHT22;16167;48.768;14.984;2022-11-20T09:20:56;1.90;23.20
29093;DHT22;16167;48.768;14.984;2022-11-20T09:23:24;1.90;27.40
29093;DHT22;16167;48.768;14.984;2022-11-20T09:25:53;1.90;27.00
29093;DHT22;16167;48.768;14.984;2022-11-20T09:28:22;1.90;28.90
29093;DHT22;16167;48.768;14.984;2022-11-20T09:30:50;1.90;27.70
29093;DHT22;16167;48.768;14.984;2022-11-20T09:33:18;1.90;32.00
29093;DHT22;16167;48.768;14.984;2022-11-20T09:35:47;2.10;29.90
29093;DHT22;16167;48.768;14.984;2022-11-20T09:38:15;2.30;23.00
29093;DHT22;16167;48.768;14.984;2022-11-20T09:40:47;2.50;17.50
29093;DHT22;16167;48.768;14.984;2022-11-20T09:43:19;2.60;15.50
29093;DHT22;16167;48.768;14.984;2022-11-20T09:46:04;2.70;10.40
29093;DHT22;16167;48.768;14.984;2022-11-20T09:48:55;2.80;7.10
29093;DHT22;16167;48.768;14.984;2022-11-20T09:51:35;2.80;9.70
29093;DHT22;16167;48.768;14.984;2022-11-20T09:54:07;2.70;6.60
29093;DHT22;16167;48.768;14.984;2022-11-20T09:56:40;2.60;11.60
29093;DHT22;16167;48.768;14.984;2022-11-20T09:59:18;2.60;17.90
29093;DHT22;16167;48.768;14.984;2022-11-20T10:01:50;2.60;15.10
29093;DHT22;16167;48.768;14.984;2022-11-20T10:04:20;2.60;14.70
29093;DHT22;16167;48.768;14.984;2022-11-20T10:06:56;2.70;18.20
29093;DHT22;16167;48.768;14.984;2022-11-20T10:09:50;2.80;18.00
29093;DHT22;16167;48.768;14.984;2022-11-20T10:12:25;2.80;19.70
29093;DHT22;16167;48.768;14.984;2022-11-20T10:15:04;3.00;12.60
29093;DHT22;16167;48.768;14.984;2022-11-20T10:17:52;3.10;9.80
29093;DHT22;16167;48.768;14.984;2022-11-20T10:20:28;3.20;5.10
29093;DHT22;16167;48.768;14.984;2022-11-20T10:23:24;3.20;2.50
29093;DHT22;16167;48.768;14.984;2022-11-20T10:25:58;3.30;2.90
29093;DHT22;16167;48.768;14.984;2022-11-20T10:28:40;3.50;1.00
29093;DHT22;16167;48.768;14.984;2022-11-20T10:31:28;3.60;1.00
29093;DHT22;16167;48.768;14.984;2022-11-20T10:34:00;3.90;1.00
29093;DHT22;16167;48.768;14.984;2022-11-20T10:36:42;4.50;1.00
29093;DHT22;16167;48.768;14.984;2022-11-20T10:39:18;4.40;1.00
29093;DHT22;16167;48.768;14.984;2022-11-20T10:41:51;4.40;1.00
29093;DHT22;16167;48.768;14.984;2022-11-20T10:44:21;5.00;1.00
29093;DHT22;16167;48.768;14.984;2022-11-20T10:47:04;5.40;1.00
29093;DHT22;16167;48.768;14.984;2022-11-20T10:49:33;6.10;1.00
29093;DHT22;16167;48.768;14.984;2022-11-20T10:52:07;7.20;1.00
29093;DHT22;16167;48.768;14.984;2022-11-20T10:54:45;7.50;1.00
29093;DHT22;16167;48.768;14.984;2022-11-20T10:57:22;8.40;1.00
29093;DHT22;16167;48.768;14.984;2022-11-20T11:00:05;7.90;1.00
29093;DHT22;16167;48.768;14.984;2022-11-20T11:02:37;7.10;1.00
29093;DHT22;16167;48.768;14.984;2022-11-20T11:05:14;6.60;1.00
29093;DHT22;16167;48.768;14.984;2022-11-20T11:07:46;6.10;1.00
29093;DHT22;16167;48.768;14.984;2022-11-20T11:10:20;5.80;1.00
29093;DHT22;16167;48.768;14.984;2022-11-20T11:12:50;5.50;1.00
29093;DHT22;16167;48.768;14.984;2022-11-20T11:15:26;5.30;1.00
29093;DHT22;16167;48.768;14.984;2022-11-20T11:17:55;5.20;1.00
29093;DHT22;16167;48.768;14.984;2022-11-20T11:20:24;5.10;1.00
29093;DHT22;16167;48.768;14.984;2022-11-20T11:22:54;5.20;1.00
29093;DHT22;16167;48.768;14.984;2022-11-20T11:25:29;6.60;1.00
29093;DHT22;16167;48.768;14.984;2022-11-20T11:27:59;6.90;1.00
29093;DHT22;16167;48.768;14.984;2022-11-20T11:30:29;7.10;1.00
29093;DHT22;16167;48.768;14.984;2022-11-20T11:33:06;7.50;1.00
29093;DHT22;16167;48.768;14.984;2022-11-20T11:35:44;7.10;1.00
29093;DHT22;16167;48.768;14.984;2022-11-20T11:38:21;7.80;1.00
29093;DHT22;16167;48.768;14.984;2022-11-20T11:40:54;8.30;1.00
29093;DHT22;16167;48.768;14.984;2022-11-20T11:43:25;8.00;1.00
29093;DHT22;16167;48.768;14.984;2022-11-20T11:46:30;7.90;1.00
29093;DHT22;16167;48.768;14.984;2022-11-20T11:49:01;8.20;1.00
29093;DHT22;16167;48.768;14.984;2022-11-20T11:51:36;7.90;1.00
29093;DHT22;16167;48.768;14.984;2022-11-20T11:54:14;7.60;1.00
29093;DHT22;16167;48.768;14.984;2022-11-20T11:56:45;7.30;1.00
29093;DHT22;16167;48.768;14.984;2022-11-20T11:59:22;7.20;1.00
29093;DHT22;16167;48.768;14.984;2022-11-20T12:01:56;7.10;1.00
29093;DHT22;16167;48.768;14.984;2022-11-20T12:04:38;6.90;1.00
29093;DHT22;16167;48.768;14.984;2022-11-20T12:07:12;6.60;1.00
29093;DHT22;16167;48.768;14.984;2022-11-20T12:10:03;6.30;1.00
29093;DHT22;16167;48.768;14.984;2022-11-20T12:12:36;6.10;1.00
29093;DHT22;16167;48.768;14.984;2022-11-20T12:15:10;6.00;1.00
29093;DHT22;16167;48.768;14.984;2022-11-20T12:17:39;6.10;1.00
29093;DHT22;16167;48.768;14.984;2022-11-20T12:20:12;6.00;1.00
29093;DHT22;16167;48.768;14.984;2022-11-20T12:22:45;6.10;1.00
29093;DHT22;16167;48.768;14.984;2022-11-20T12:25:21;6.30;1.00
29093;DHT22;16167;48.768;14.984;2022-11-20T12:30:51;6.50;1.00
29093;DHT22;16167;48.768;14.984;2022-11-20T12:33:44;6.60;1.00
29093;DHT22;16167;48.768;14.984;2022-11-20T12:36:27;7.70;1.00
29093;DHT22;16167;48.768;14.984;2022-11-20T12:39:17;9.00;1.00
29093;DHT22;16167;48.768;14.984;2022-11-20T12:42:03;9.20;1.00
29093;DHT22;16167;48.768;14.984;2022-11-20T12:45:07;9.50;1.00
29093;DHT22;16167;48.768;14.984;2022-11-20T12:47:59;8.90;1.00
29093;DHT22;16167;48.768;14.984;2022-11-20T12:50:38;8.20;1.00
29093;DHT22;16167;48.768;14.984;2022-11-20T12:53:36;7.90;1.00
29093;DHT22;16167;48.768;14.984;2022-11-20T12:56:18;7.60;1.00
29093;DHT22;16167;48.768;14.984;2022-11-20T12:59:02;7.10;1.00
29093;DHT22;16167;48.768;14.984;2022-11-20T13:01:39;6.80;1.00
29093;DHT22;16167;48.768;14.984;2022-11-20T13:04:19;6.60;1.00
29093;DHT22;16167;48.768;14.984;2022-11-20T13:06:51;6.40;1.00
29093;DHT22;16167;48.768;14.984;2022-11-20T13:09:23;6.20;1.00
29093;DHT22;16167;48.768;14.984;2022-11-20T13:12:01;6.10;1.00
29093;DHT22;16167;48.768;14.984;2022-11-20T13:14:35;6.00;1.00
29093;DHT22;16167;48.768;14.984;2022-11-20T13:17:11;5.80;1.00
29093;DHT22;16167;48.768;14.984;2022-11-20T13:19:41;5.80;1.00
29093;DHT22;16167;48.768;14.984;2022-11-20T13:22:09;5.70;1.00
29093;DHT22;16167;48.768;14.984;2022-11-20T13:24:37;5.70;1.00
29093;DHT22;16167;48.768;14.984;2022-11-20T13:27:18;5.60;1.00
29093;DHT22;16167;48.768;14.984;2022-11-20T13:29:59;5.50;1.00
29093;DHT22;16167;48.768;14.984;2022-11-20T13:32:29;5.40;1.00
29093;DHT22;16167;48.768;14.984;2022-11-20T13:35:00;5.70;1.00
29093;DHT22;16167;48.768;14.984;2022-11-20T13:37:31;6.00;1.00
29093;DHT22;16167;48.768;14.984;2022-11-20T13:40:21;5.90;1.00
29093;DHT22;16167;48.768;14.984;2022-11-20T13:43:02;5.80;1.00
29093;DHT22;16167;48.768;14.984;2022-11-20T13:45:32;5.70;1.00
29093;DHT22;16167;48.768;14.984;2022-11-20T13:48:04;5.60;1.00
29093;DHT22;16167;48.768;14.984;2022-11-20T13:50:55;5.50;1.00
29093;DHT22;16167;48.768;14.984;2022-11-20T13:53:35;5.40;1.00
29093;DHT22;16167;48.768;14.984;2022-11-20T13:56:10;5.40;1.00
29093;DHT22;16167;48.768;14.984;2022-11-20T13:58:50;5.30;1.00
29093;DHT22;16167;48.768;14.984;2022-11-20T14:01:23;5.20;1.00
29093;DHT22;16167;48.768;14.984;2022-11-20T14:03:54;5.10;1.00
29093;DHT22;16167;48.768;14.984;2022-11-20T14:06:38;5.10;1.00
29093;DHT22;16167;48.768;14.984;2022-11-20T14:09:11;5.20;1.00
29093;DHT22;16167;48.768;14.984;2022-11-20T14:11:46;5.30;1.00
29093;DHT22;16167;48.768;14.984;2022-11-20T14:14:16;5.40;1.00
29093;DHT22;16167;48.768;14.984;2022-11-20T14:16:46;5.30;1.00
29093;DHT22;16167;48.768;14.984;2022-11-20T14:19:28;5.20;1.00
29093;DHT22;16167;48.768;14.984;2022-11-20T14:22:09;5.10;1.00
29093;DHT22;16167;48.768;14.984;2022-11-20T14:24:37;5.20;1.00
29093;DHT22;16167;48.768;14.984;2022-11-20T14:27:12;5.10;1.00
29093;DHT22;16167;48.768;14.984;2022-11-20T14:29:40;5.10;1.00
29093;DHT22;16167;48.768;14.984;2022-11-20T14:32:09;5.00;1.00
29093;DHT22;16167;48.768;14.984;2022-11-20T14:34:40;5.00;1.00
29093;DHT22;16167;48.768;14.984;2022-11-20T14:37:11;5.00;1.00
29093;DHT22;16167;48.768;14.984;2022-11-20T14:39:48;5.00;1.00
29093;DHT22;16167;48.768;14.984;2022-11-20T14:42:19;5.00;1.00
29093;DHT22;16167;48.768;14.984;2022-11-20T14:44:48;4.90;2.00
29093;DHT22;16167;48.768;14.984;2022-11-20T14:47:17;4.90;4.60
29093;DHT22;16167;48.768;14.984;2022-11-20T14:49:48;4.80;6.00
29093;DHT22;16167;48.768;14.984;2022-11-20T14:52:18;4.80;7.30
29093;DHT22;16167;48.768;14.984;2022-11-20T14:54:48;4.70;7.00
29093;DHT22;16167;48.768;14.984;2022-11-20T14:57:25;4.70;9.30
29093;DHT22;16167;48.768;14.984;2022-11-20T15:00:05;4.70;10.40
29093;DHT22;16167;48.768;14.984;2022-11-20T15:02:33;4.70;12.80
29093;DHT22;16167;48.768;14.984;2022-11-20T15:05:03;4.60;15.30
29093;DHT22;16167;48.768;14.984;2022-11-20T15:07:33;4.60;12.00
29093;DHT22;16167;48.768;14.984;2022-11-20T15:10:04;4.60;13.20
29093;DHT22;16167;48.768;14.984;2022-11-20T15:12:34;4.50;16.70
29093;DHT22;16167;48.768;14.984;2022-11-20T15:15:04;4.40;18.00
29093;DHT22;16167;48.768;14.984;2022-11-20T15:17:33;4.50;16.90
29093;DHT22;16167;48.768;14.984;2022-11-20T15:23:20;4.40;16.80
29093;DHT22;16167;48.768;14.984;2022-11-20T15:25:49;4.50;17.60
29093;DHT22;16167;48.768;14.984;2022-11-20T15:28:20;4.40;20.70
29093;DHT22;16167;48.768;14.984;2022-11-20T15:30:49;4.40;21.90
29093;DHT22;16167;48.768;14.984;2022-11-20T15:33:17;4.30;22.90
29093;DHT22;16167;48.768;14.984;2022-11-20T15:35:46;4.30;24.80
29093;DHT22;16167;48.768;14.984;2022-11-20T15:38:14;4.30;27.30
29093;DHT22;16167;48.768;14.984;2022-11-20T15:40:43;4.20;30.20
29093;DHT22;16167;48.768;14.984;2022-11-20T15:43:11;4.20;32.80
29093;DHT22;16167;48.768;14.984;2022-11-20T15:45:42;4.20;35.10
29093;DHT22;16167;48.768;14.984;2022-11-20T15:48:14;4.10;39.30
29093;DHT22;16167;48.768;14.984;2022-11-20T15:50:49;4.10;40.70
29093;DHT22;16167;48.768;14.984;2022-11-20T15:53:18;4.10;40.50
29093;DHT22;16167;48.768;14.984;2022-11-20T15:55:48;4.10;42.60
29093;DHT22;16167;48.768;14.984;2022-11-20T15:58:16;4.10;42.00
29093;DHT22;16167;48.768;14.984;2022-11-20T16:00:44;4.10;44.50
29093;DHT22;16167;48.768;14.984;2022-11-20T16:03:13;4.10;44.20